DAE714 SKUC-SKPC
Flight info
| Callsign | DAE714 |
|---|---|
| Flight time | 0h 38m |
| Altitude | 29000 |
| Route | GARCI DCT OPRUS DCT SIDUN SIDUN2B |
| Aircraft | B738/M-SDE2E3FGHIRWXY/LB1 |
Departure
| Time | 2026-04-12 16:59 |
|---|---|
| Airport | Santiago Perez Airport (SKUC) |
Arrival
| Time | 2026-04-12 17:38 |
|---|---|
| Airport | German Olano Airport (SKPC) |
| Time | Latitude | Longitude | Altitude | Speed | Heading |
|---|---|---|---|---|---|
| 2026-04-12 16:20 | 7.06982 | -70.73856 | 427 ft | 0 kts | 328° |
| 2026-04-12 16:50 | 7.06983 | -70.73857 | 427 ft | 1 kts | 322° |
| 2026-04-12 16:50 | 7.06980 | -70.73864 | 419 ft | 2 kts | 252° |
| 2026-04-12 16:50 | 7.06977 | -70.73874 | 424 ft | 2 kts | 243° |
| 2026-04-12 16:51 | 7.06968 | -70.73883 | 422 ft | 2 kts | 224° |
| 2026-04-12 16:51 | 7.06955 | -70.73895 | 425 ft | 4 kts | 221° |
| 2026-04-12 16:51 | 7.06928 | -70.73931 | 422 ft | 10 kts | 246° |
| 2026-04-12 16:51 | 7.06932 | -70.74017 | 428 ft | 15 kts | 277° |
| 2026-04-12 16:52 | 7.06949 | -70.74148 | 426 ft | 22 kts | 278° |
| 2026-04-12 16:52 | 7.06968 | -70.74319 | 415 ft | 26 kts | 279° |
| 2026-04-12 16:52 | 7.06996 | -70.74507 | 414 ft | 25 kts | 278° |
| 2026-04-12 16:52 | 7.07002 | -70.74625 | 418 ft | 9 kts | 330° |
| 2026-04-12 16:53 | 7.07014 | -70.74620 | 424 ft | 0 kts | 66° |
| 2026-04-12 16:53 | 7.07012 | -70.74616 | 416 ft | 0 kts | 96° |
| 2026-04-12 16:58 | 7.07012 | -70.74609 | 419 ft | 8 kts | 96° |
| 2026-04-12 16:59 | 7.06989 | -70.74435 | 425 ft | 44 kts | 97° |
| 2026-04-12 16:59 | 7.06911 | -70.73834 | 429 ft | 127 kts | 97° |
| 2026-04-12 16:59 | 7.06780 | -70.72750 | 702 ft | 171 kts | 95° |
| 2026-04-12 16:59 | 7.06639 | -70.71572 | 1819 ft | 161 kts | 95° |
| 2026-04-12 17:00 | 7.06501 | -70.70470 | 2777 ft | 166 kts | 95° |
| 2026-04-12 17:00 | 7.06344 | -70.69193 | 3156 ft | 204 kts | 96° |
| 2026-04-12 17:00 | 7.06101 | -70.67676 | 3369 ft | 235 kts | 106° |
| 2026-04-12 17:00 | 7.05116 | -70.66316 | 3826 ft | 255 kts | 141° |
| 2026-04-12 17:01 | 7.03633 | -70.65216 | 4280 ft | 271 kts | 139° |
| 2026-04-12 17:01 | 7.02312 | -70.63858 | 5146 ft | 270 kts | 126° |
| 2026-04-12 17:01 | 7.01340 | -70.62261 | 6162 ft | 267 kts | 113° |
| 2026-04-12 17:01 | 7.00737 | -70.60488 | 7046 ft | 270 kts | 103° |
| 2026-04-12 17:02 | 7.00308 | -70.58631 | 7856 ft | 276 kts | 102° |
| 2026-04-12 17:02 | 6.99911 | -70.56725 | 8479 ft | 288 kts | 101° |
| 2026-04-12 17:02 | 6.99486 | -70.54740 | 9377 ft | 287 kts | 102° |
| 2026-04-12 17:02 | 6.99052 | -70.52793 | 10408 ft | 285 kts | 102° |
| 2026-04-12 17:03 | 6.98598 | -70.50789 | 10824 ft | 305 kts | 102° |
| 2026-04-12 17:03 | 6.98103 | -70.48623 | 11025 ft | 329 kts | 103° |
| 2026-04-12 17:03 | 6.97576 | -70.46334 | 11529 ft | 339 kts | 103° |
| 2026-04-12 17:03 | 6.97038 | -70.44004 | 12248 ft | 342 kts | 103° |
| 2026-04-12 17:04 | 6.96496 | -70.41662 | 12924 ft | 347 kts | 103° |
| 2026-04-12 17:04 | 6.95940 | -70.39267 | 13551 ft | 354 kts | 103° |
| 2026-04-12 17:04 | 6.95379 | -70.36851 | 14250 ft | 354 kts | 103° |
| 2026-04-12 17:04 | 6.94815 | -70.34424 | 14803 ft | 359 kts | 103° |
| 2026-04-12 17:05 | 6.94241 | -70.31954 | 15282 ft | 365 kts | 103° |
| 2026-04-12 17:05 | 6.93657 | -70.29448 | 15757 ft | 371 kts | 103° |
| 2026-04-12 17:05 | 6.93066 | -70.26904 | 16298 ft | 374 kts | 103° |
| 2026-04-12 17:05 | 6.92478 | -70.24379 | 16828 ft | 378 kts | 103° |
| 2026-04-12 17:06 | 6.91875 | -70.21787 | 17280 ft | 383 kts | 104° |
| 2026-04-12 17:06 | 6.91262 | -70.19156 | 17754 ft | 387 kts | 104° |
| 2026-04-12 17:06 | 6.90645 | -70.16506 | 18301 ft | 390 kts | 104° |
| 2026-04-12 17:06 | 6.90022 | -70.13833 | 18775 ft | 393 kts | 104° |
| 2026-04-12 17:07 | 6.89393 | -70.11146 | 19237 ft | 397 kts | 104° |
| 2026-04-12 17:07 | 6.88761 | -70.08430 | 19723 ft | 399 kts | 104° |
| 2026-04-12 17:07 | 6.88126 | -70.05696 | 20194 ft | 402 kts | 104° |
| 2026-04-12 17:07 | 6.87485 | -70.02943 | 20661 ft | 405 kts | 104° |
| 2026-04-12 17:08 | 6.86846 | -70.00209 | 21100 ft | 408 kts | 105° |
| 2026-04-12 17:08 | 6.85808 | -69.97627 | 21485 ft | 409 kts | 124° |
| 2026-04-12 17:08 | 6.83974 | -69.95453 | 21936 ft | 408 kts | 141° |
| 2026-04-12 17:08 | 6.81682 | -69.93760 | 22390 ft | 409 kts | 146° |
| 2026-04-12 17:09 | 6.79313 | -69.92142 | 22785 ft | 413 kts | 147° |
| 2026-04-12 17:09 | 6.76919 | -69.90527 | 23166 ft | 416 kts | 147° |
| 2026-04-12 17:09 | 6.74511 | -69.88894 | 23558 ft | 419 kts | 147° |
| 2026-04-12 17:09 | 6.72094 | -69.87239 | 23903 ft | 421 kts | 147° |
| 2026-04-12 17:10 | 6.69674 | -69.85567 | 24227 ft | 423 kts | 146° |
| 2026-04-12 17:10 | 6.67238 | -69.83877 | 24496 ft | 427 kts | 146° |
| 2026-04-12 17:10 | 6.64784 | -69.82169 | 24777 ft | 431 kts | 146° |
| 2026-04-12 17:10 | 6.62316 | -69.80450 | 25110 ft | 432 kts | 146° |
| 2026-04-12 17:11 | 6.59839 | -69.78725 | 25404 ft | 435 kts | 146° |
| 2026-04-12 17:11 | 6.57344 | -69.76987 | 25714 ft | 437 kts | 146° |
| 2026-04-12 17:11 | 6.54837 | -69.75243 | 26014 ft | 439 kts | 146° |
| 2026-04-12 17:11 | 6.52348 | -69.73512 | 26305 ft | 442 kts | 146° |
| 2026-04-12 17:12 | 6.49807 | -69.71742 | 26587 ft | 444 kts | 145° |
| 2026-04-12 17:12 | 6.47420 | -69.69759 | 26852 ft | 448 kts | 136° |
| 2026-04-12 17:12 | 6.45365 | -69.67401 | 27133 ft | 450 kts | 126° |
| 2026-04-12 17:12 | 6.43565 | -69.64810 | 27434 ft | 452 kts | 124° |
| 2026-04-12 17:13 | 6.41800 | -69.62192 | 27697 ft | 455 kts | 124° |
| 2026-04-12 17:13 | 6.40030 | -69.59556 | 28138 ft | 452 kts | 124° |
| 2026-04-12 17:13 | 6.38272 | -69.56952 | 28642 ft | 449 kts | 124° |
| 2026-04-12 17:13 | 6.36511 | -69.54363 | 28939 ft | 450 kts | 124° |
| 2026-04-12 17:14 | 6.34726 | -69.51754 | 28912 ft | 455 kts | 124° |
| 2026-04-12 17:14 | 6.31129 | -69.46530 | 28920 ft | 452 kts | 125° |
| 2026-04-12 17:15 | 6.27550 | -69.41343 | 28935 ft | 451 kts | 125° |
| 2026-04-12 17:15 | 6.23977 | -69.36164 | 28932 ft | 451 kts | 125° |
| 2026-04-12 17:16 | 6.20651 | -69.30817 | 28144 ft | 453 kts | 111° |
| 2026-04-12 17:16 | 6.19702 | -69.27827 | 27636 ft | 448 kts | 103° |
| 2026-04-12 17:16 | 6.19213 | -69.24797 | 27164 ft | 443 kts | 95° |
| 2026-04-12 17:16 | 6.19011 | -69.21684 | 26684 ft | 438 kts | 94° |
| 2026-04-12 17:17 | 6.18845 | -69.18674 | 26212 ft | 434 kts | 93° |
| 2026-04-12 17:17 | 6.18683 | -69.15652 | 25729 ft | 431 kts | 93° |
| 2026-04-12 17:17 | 6.18516 | -69.12653 | 25259 ft | 428 kts | 94° |
| 2026-04-12 17:17 | 6.18342 | -69.09680 | 24778 ft | 425 kts | 94° |
| 2026-04-12 17:18 | 6.18162 | -69.06720 | 24310 ft | 422 kts | 94° |
| 2026-04-12 17:18 | 6.17978 | -69.03785 | 23845 ft | 420 kts | 94° |
| 2026-04-12 17:18 | 6.17793 | -69.00861 | 23354 ft | 418 kts | 94° |
| 2026-04-12 17:18 | 6.17612 | -68.98027 | 22849 ft | 415 kts | 94° |
| 2026-04-12 17:19 | 6.17427 | -68.95146 | 22376 ft | 411 kts | 94° |
| 2026-04-12 17:19 | 6.17244 | -68.92297 | 21915 ft | 407 kts | 94° |
| 2026-04-12 17:19 | 6.17063 | -68.89477 | 21463 ft | 403 kts | 94° |
| 2026-04-12 17:19 | 6.16885 | -68.86711 | 21023 ft | 399 kts | 95° |
| 2026-04-12 17:20 | 6.16707 | -68.83939 | 20583 ft | 396 kts | 94° |
| 2026-04-12 17:20 | 6.16531 | -68.81194 | 20147 ft | 393 kts | 94° |
| 2026-04-12 17:20 | 6.16355 | -68.78463 | 19699 ft | 390 kts | 95° |
| 2026-04-12 17:20 | 6.16180 | -68.75751 | 19263 ft | 388 kts | 95° |
| 2026-04-12 17:21 | 6.16006 | -68.73046 | 18813 ft | 386 kts | 95° |
| 2026-04-12 17:21 | 6.15833 | -68.70369 | 18425 ft | 382 kts | 95° |
| 2026-04-12 17:21 | 6.15662 | -68.67715 | 18000 ft | 379 kts | 95° |
| 2026-04-12 17:21 | 6.15492 | -68.65078 | 17531 ft | 376 kts | 95° |
| 2026-04-12 17:22 | 6.15323 | -68.62467 | 17101 ft | 373 kts | 95° |
| 2026-04-12 17:22 | 6.15155 | -68.59880 | 16680 ft | 370 kts | 95° |
| 2026-04-12 17:22 | 6.14989 | -68.57310 | 16249 ft | 366 kts | 94° |
| 2026-04-12 17:22 | 6.14824 | -68.54762 | 15835 ft | 363 kts | 94° |
| 2026-04-12 17:23 | 6.14662 | -68.52272 | 15427 ft | 360 kts | 94° |
| 2026-04-12 17:23 | 6.14499 | -68.49765 | 15016 ft | 358 kts | 94° |
| 2026-04-12 17:23 | 6.14338 | -68.47279 | 14612 ft | 355 kts | 94° |
| 2026-04-12 17:23 | 6.14177 | -68.44814 | 14203 ft | 352 kts | 94° |
| 2026-04-12 17:24 | 6.14018 | -68.42363 | 13788 ft | 350 kts | 94° |
| 2026-04-12 17:24 | 6.13860 | -68.39928 | 13339 ft | 348 kts | 94° |
| 2026-04-12 17:24 | 6.13702 | -68.37508 | 12918 ft | 345 kts | 94° |
| 2026-04-12 17:24 | 6.13546 | -68.35115 | 12508 ft | 342 kts | 94° |
| 2026-04-12 17:25 | 6.13391 | -68.32742 | 12106 ft | 339 kts | 94° |
| 2026-04-12 17:25 | 6.13238 | -68.30392 | 11713 ft | 336 kts | 94° |
| 2026-04-12 17:25 | 6.13086 | -68.28061 | 11327 ft | 333 kts | 94° |
| 2026-04-12 17:25 | 6.12935 | -68.25749 | 10941 ft | 330 kts | 93° |
| 2026-04-12 17:26 | 6.12785 | -68.23457 | 10579 ft | 327 kts | 93° |
| 2026-04-12 17:26 | 6.12638 | -68.21209 | 10443 ft | 317 kts | 93° |
| 2026-04-12 17:26 | 6.12495 | -68.19030 | 10313 ft | 308 kts | 93° |
| 2026-04-12 17:26 | 6.12358 | -68.16939 | 10171 ft | 299 kts | 93° |
| 2026-04-12 17:27 | 6.12223 | -68.14883 | 10043 ft | 290 kts | 93° |
| 2026-04-12 17:27 | 6.12092 | -68.12883 | 9960 ft | 280 kts | 93° |
| 2026-04-12 17:27 | 6.11963 | -68.10922 | 9535 ft | 283 kts | 93° |
| 2026-04-12 17:27 | 6.11834 | -68.08957 | 9212 ft | 282 kts | 93° |
| 2026-04-12 17:28 | 6.11706 | -68.06996 | 8912 ft | 280 kts | 93° |
| 2026-04-12 17:28 | 6.11581 | -68.05097 | 8620 ft | 278 kts | 93° |
| 2026-04-12 17:28 | 6.11454 | -68.03157 | 8331 ft | 277 kts | 93° |
| 2026-04-12 17:28 | 6.11327 | -68.01234 | 8044 ft | 275 kts | 93° |
| 2026-04-12 17:29 | 6.11204 | -67.99366 | 7769 ft | 273 kts | 93° |
| 2026-04-12 17:29 | 6.11081 | -67.97487 | 7489 ft | 272 kts | 93° |
| 2026-04-12 17:29 | 6.10956 | -67.95594 | 7209 ft | 271 kts | 93° |
| 2026-04-12 17:29 | 6.10832 | -67.93709 | 6933 ft | 270 kts | 93° |
| 2026-04-12 17:30 | 6.10708 | -67.91830 | 6650 ft | 269 kts | 94° |
| 2026-04-12 17:30 | 6.10584 | -67.89960 | 6379 ft | 267 kts | 93° |
| 2026-04-12 17:30 | 6.10461 | -67.88098 | 6094 ft | 266 kts | 93° |
| 2026-04-12 17:30 | 6.10339 | -67.86245 | 5811 ft | 265 kts | 94° |
| 2026-04-12 17:31 | 6.10218 | -67.84405 | 5536 ft | 263 kts | 94° |
| 2026-04-12 17:31 | 6.10097 | -67.82579 | 5253 ft | 262 kts | 94° |
| 2026-04-12 17:31 | 6.09976 | -67.80761 | 4984 ft | 260 kts | 94° |
| 2026-04-12 17:31 | 6.09856 | -67.78950 | 4699 ft | 259 kts | 94° |
| 2026-04-12 17:32 | 6.09737 | -67.77147 | 4417 ft | 258 kts | 94° |
| 2026-04-12 17:32 | 6.09619 | -67.75360 | 4234 ft | 253 kts | 94° |
| 2026-04-12 17:32 | 6.09503 | -67.73621 | 4110 ft | 246 kts | 94° |
| 2026-04-12 17:32 | 6.09392 | -67.71952 | 4005 ft | 240 kts | 94° |
| 2026-04-12 17:33 | 6.09283 | -67.70303 | 3881 ft | 233 kts | 94° |
| 2026-04-12 17:33 | 6.09177 | -67.68702 | 3779 ft | 225 kts | 94° |
| 2026-04-12 17:33 | 6.09074 | -67.67156 | 3620 ft | 220 kts | 94° |
| 2026-04-12 17:33 | 6.09181 | -67.65660 | 3398 ft | 214 kts | 68° |
| 2026-04-12 17:34 | 6.09896 | -67.64383 | 3213 ft | 206 kts | 59° |
| 2026-04-12 17:34 | 6.10602 | -67.63150 | 2974 ft | 201 kts | 60° |
| 2026-04-12 17:34 | 6.11288 | -67.61944 | 2727 ft | 197 kts | 60° |
| 2026-04-12 17:34 | 6.11959 | -67.60764 | 2509 ft | 192 kts | 60° |
| 2026-04-12 17:35 | 6.12618 | -67.59608 | 2294 ft | 187 kts | 60° |
| 2026-04-12 17:35 | 6.13246 | -67.58505 | 2091 ft | 177 kts | 59° |
| 2026-04-12 17:35 | 6.13637 | -67.57817 | 1979 ft | 166 kts | 60° |
| 2026-04-12 17:35 | 6.14191 | -67.56844 | 1735 ft | 158 kts | 59° |
| 2026-04-12 17:36 | 6.14725 | -67.55906 | 1532 ft | 154 kts | 60° |
| 2026-04-12 17:36 | 6.15256 | -67.54974 | 1336 ft | 153 kts | 60° |
| 2026-04-12 17:36 | 6.15784 | -67.54035 | 1118 ft | 155 kts | 60° |
| 2026-04-12 17:36 | 6.16311 | -67.53091 | 909 ft | 154 kts | 58° |
| 2026-04-12 17:37 | 6.16853 | -67.52169 | 701 ft | 152 kts | 59° |
| 2026-04-12 17:37 | 6.17374 | -67.51260 | 500 ft | 148 kts | 60° |
| 2026-04-12 17:37 | 6.17876 | -67.50371 | 300 ft | 144 kts | 60° |
| 2026-04-12 17:37 | 6.18350 | -67.49541 | 180 ft | 105 kts | 60° |
| 2026-04-12 17:38 | 6.18540 | -67.49206 | 181 ft | 31 kts | 60° |
| 2026-04-12 17:38 | 6.18605 | -67.49092 | 180 ft | 6 kts | 59° |
| 2026-04-12 17:38 | 6.18600 | -67.49071 | 180 ft | 3 kts | 171° |
| 2026-04-12 17:38 | 6.18576 | -67.49076 | 180 ft | 4 kts | 197° |
| 2026-04-12 17:39 | 6.18553 | -67.49083 | 180 ft | 3 kts | 196° |
| 2026-04-12 17:39 | 6.18530 | -67.49089 | 180 ft | 3 kts | 196° |
| 2026-04-12 17:39 | 6.18508 | -67.49096 | 181 ft | 3 kts | 196° |
| 2026-04-12 17:39 | 6.18487 | -67.49102 | 181 ft | 3 kts | 196° |
| 2026-04-12 17:40 | 6.18466 | -67.49099 | 181 ft | 3 kts | 153° |
| 2026-04-12 17:40 | 6.18442 | -67.49088 | 181 ft | 4 kts | 168° |
| 2026-04-12 17:40 | 6.18431 | -67.49109 | 181 ft | 4 kts | 294° |
| 2026-04-12 17:40 | 6.18450 | -67.49138 | 181 ft | 5 kts | 271° |
| 2026-04-12 17:41 | 6.18437 | -67.49148 | 181 ft | 2 kts | 192° |
| 2026-04-12 17:41 | 6.18412 | -67.49135 | 181 ft | 7 kts | 142° |
| 2026-04-12 17:41 | 6.18408 | -67.49125 | 181 ft | 0 kts | 60° |